createdAt,value
2023-06-07T00:01:34.874Z,15.80
2023-06-07T00:04:03.912Z,15.80
2023-06-07T00:06:34.003Z,15.80
2023-06-07T00:09:01.613Z,15.80
2023-06-07T00:11:29.287Z,15.90
2023-06-07T00:13:56.997Z,15.90
2023-06-07T00:16:27.072Z,16.00
2023-06-07T00:18:54.843Z,16.10
2023-06-07T00:21:23.659Z,16.10
2023-06-07T00:23:51.639Z,16.10
2023-06-07T00:26:19.304Z,16.10
2023-06-07T00:28:50.846Z,16.00
2023-06-07T00:31:18.686Z,16.00
2023-06-07T00:33:46.594Z,16.00
2023-06-07T00:36:14.244Z,15.90
2023-06-07T00:38:42.916Z,15.90
2023-06-07T00:41:10.612Z,15.90
2023-06-07T00:43:38.305Z,15.90
2023-06-07T00:46:07.957Z,15.90
2023-06-07T00:48:36.400Z,15.90
2023-06-07T00:51:07.179Z,15.90
2023-06-07T00:53:36.480Z,15.90
2023-06-07T00:56:06.630Z,16.00
2023-06-07T00:58:35.120Z,16.00
2023-06-07T01:01:03.798Z,16.00
2023-06-07T01:03:32.395Z,15.90
2023-06-07T01:06:03.690Z,15.80
2023-06-07T01:08:34.751Z,15.70
2023-06-07T01:11:03.599Z,15.60
2023-06-07T01:13:32.828Z,15.50
2023-06-07T01:16:03.830Z,15.40
2023-06-07T01:18:31.608Z,15.40
2023-06-07T01:21:00.634Z,15.30
2023-06-07T01:23:33.981Z,15.30
2023-06-07T01:26:03.142Z,15.20
2023-06-07T01:28:35.217Z,15.20
2023-06-07T01:31:04.008Z,15.20
2023-06-07T01:33:34.724Z,15.20
2023-06-07T01:36:06.418Z,15.20
2023-06-07T01:38:34.934Z,15.20
2023-06-07T01:41:08.770Z,15.20
2023-06-07T01:43:40.568Z,15.20
2023-06-07T01:46:08.833Z,15.30
2023-06-07T01:48:36.548Z,15.30
2023-06-07T01:51:04.716Z,15.30
2023-06-07T01:53:32.477Z,15.30
2023-06-07T01:56:08.717Z,15.10
2023-06-07T01:59:04.154Z,15.10
2023-06-07T02:01:59.068Z,15.10
2023-06-07T02:04:29.464Z,15.10
2023-06-07T02:07:03.852Z,15.10
2023-06-07T02:09:37.116Z,15.10
2023-06-07T02:12:06.889Z,15.10
2023-06-07T02:14:37.560Z,15.00
2023-06-07T02:17:09.212Z,15.00
2023-06-07T02:19:39.497Z,15.00
2023-06-07T02:22:10.691Z,15.00
2023-06-07T02:24:39.798Z,15.10
2023-06-07T02:27:07.834Z,15.10
2023-06-07T02:29:36.119Z,15.10
2023-06-07T02:32:04.222Z,15.10
2023-06-07T02:34:33.833Z,15.10
2023-06-07T02:37:02.411Z,15.10
2023-06-07T02:39:31.185Z,15.20
2023-06-07T02:41:58.860Z,15.20
2023-06-07T02:44:26.736Z,15.20
2023-06-07T02:46:54.429Z,15.20
2023-06-07T02:49:22.573Z,15.20
2023-06-07T02:51:50.541Z,15.20
2023-06-07T02:54:20.533Z,15.30
2023-06-07T02:56:48.970Z,15.30
2023-06-07T02:59:16.503Z,15.30
2023-06-07T03:01:45.960Z,15.30
2023-06-07T03:04:14.242Z,15.30
2023-06-07T03:06:43.341Z,15.30
2023-06-07T03:09:29.658Z,15.40
2023-06-07T03:11:57.716Z,15.30
2023-06-07T03:14:29.877Z,15.30
2023-06-07T03:16:57.706Z,15.40
2023-06-07T03:19:25.576Z,15.40
2023-06-07T03:21:55.123Z,15.30
2023-06-07T03:24:24.797Z,15.40
2023-06-07T03:26:53.650Z,15.40
2023-06-07T03:29:21.634Z,15.50
2023-06-07T03:31:49.381Z,15.50
2023-06-07T03:34:20.098Z,15.60
2023-06-07T03:36:48.894Z,15.70
2023-06-07T03:39:18.663Z,15.70
2023-06-07T03:41:46.603Z,15.80
2023-06-07T03:44:18.615Z,15.80
2023-06-07T03:46:47.884Z,15.90
2023-06-07T03:49:15.601Z,15.90
2023-06-07T03:51:44.473Z,16.00
2023-06-07T03:54:14.458Z,16.00
2023-06-07T03:56:43.707Z,16.10
2023-06-07T03:59:14.350Z,16.10
2023-06-07T04:01:44.106Z,16.10
2023-06-07T04:04:11.795Z,16.20
2023-06-07T04:06:40.979Z,16.30
2023-06-07T04:09:09.501Z,16.40
2023-06-07T04:11:37.720Z,16.50
2023-06-07T04:14:06.483Z,16.60
2023-06-07T04:16:34.290Z,16.80
2023-06-07T04:19:02.740Z,16.90
2023-06-07T04:21:34.085Z,16.90
2023-06-07T04:24:04.298Z,17.00
2023-06-07T04:26:32.531Z,17.10
2023-06-07T04:29:00.474Z,17.30
2023-06-07T04:31:35.524Z,17.40
2023-06-07T04:34:06.169Z,17.60
2023-06-07T04:36:38.712Z,17.90
2023-06-07T04:39:11.938Z,18.10
2023-06-07T04:41:43.994Z,18.30
2023-06-07T04:44:13.082Z,18.50
2023-06-07T04:46:42.892Z,18.70
2023-06-07T04:49:18.460Z,18.90
2023-06-07T04:51:48.802Z,19.10
2023-06-07T04:54:17.925Z,19.20
2023-06-07T04:56:50.190Z,19.20
2023-06-07T04:59:19.627Z,19.20
2023-06-07T05:01:48.590Z,19.30
2023-06-07T05:04:18.199Z,19.20
2023-06-07T05:06:59.762Z,19.20
2023-06-07T05:09:32.024Z,19.10
2023-06-07T05:12:03.648Z,19.00
2023-06-07T05:14:32.226Z,18.80
2023-06-07T05:17:01.270Z,18.90
2023-06-07T05:19:31.849Z,18.90
2023-06-07T05:21:59.488Z,18.90
2023-06-07T05:24:27.786Z,18.80
2023-06-07T05:26:55.364Z,18.70
2023-06-07T05:29:23.456Z,18.70
2023-06-07T05:31:53.340Z,18.80
2023-06-07T05:34:21.007Z,18.80
2023-06-07T05:36:49.053Z,18.80
2023-06-07T05:39:17.083Z,18.90
2023-06-07T05:41:45.634Z,19.00
2023-06-07T05:44:13.394Z,19.20
2023-06-07T05:46:41.281Z,19.20
2023-06-07T05:49:09.752Z,19.30
2023-06-07T05:51:37.857Z,19.40
2023-06-07T05:54:08.231Z,19.40
2023-06-07T05:56:36.661Z,19.50
2023-06-07T05:59:04.256Z,19.70
2023-06-07T06:01:32.359Z,19.90
2023-06-07T06:03:59.855Z,20.00
2023-06-07T06:06:27.346Z,20.10
2023-06-07T06:08:54.868Z,20.20
2023-06-07T06:11:22.319Z,20.20
2023-06-07T06:13:49.993Z,20.40
2023-06-07T06:16:17.530Z,20.50
2023-06-07T06:18:45.189Z,20.70
2023-06-07T06:21:12.664Z,21.00
2023-06-07T06:23:40.641Z,21.30
2023-06-07T06:26:08.275Z,21.40
2023-06-07T06:28:36.232Z,21.60
2023-06-07T06:31:05.103Z,22.00
2023-06-07T06:33:32.805Z,22.30
2023-06-07T06:36:02.440Z,22.40
2023-06-07T06:38:30.068Z,22.70
2023-06-07T06:40:57.586Z,22.70
2023-06-07T06:43:25.023Z,22.70
2023-06-07T06:45:58.022Z,22.80
2023-06-07T06:48:25.562Z,23.60
2023-06-07T06:50:53.087Z,24.30
2023-06-07T06:53:20.612Z,24.60
2023-06-07T06:55:49.052Z,24.60
2023-06-07T06:58:17.563Z,24.30
2023-06-07T07:00:51.280Z,24.20
2023-06-07T07:03:18.780Z,24.50
2023-06-07T07:05:46.716Z,24.90
2023-06-07T07:08:15.255Z,24.20
2023-06-07T07:10:42.730Z,23.80
2023-06-07T07:13:10.622Z,23.30
2023-06-07T07:15:38.193Z,22.80
2023-06-07T07:18:08.841Z,22.70
2023-06-07T07:20:37.066Z,23.40
2023-06-07T07:23:10.918Z,23.60
2023-06-07T07:25:38.516Z,23.30
2023-06-07T07:28:06.250Z,23.20
2023-06-07T07:30:33.732Z,23.10
2023-06-07T07:33:02.171Z,23.10
2023-06-07T07:35:29.775Z,23.20
2023-06-07T07:38:02.542Z,23.40
2023-06-07T07:40:30.823Z,23.30
2023-06-07T07:42:59.706Z,23.40
2023-06-07T07:45:27.964Z,23.60
2023-06-07T07:47:55.680Z,24.00
2023-06-07T07:50:23.932Z,24.40
2023-06-07T07:52:54.788Z,24.70
2023-06-07T07:55:24.040Z,25.00
2023-06-07T07:57:51.669Z,25.00
2023-06-07T08:00:19.437Z,24.60
2023-06-07T08:02:47.406Z,24.20
2023-06-07T08:05:15.077Z,24.00
2023-06-07T08:07:43.378Z,23.90
2023-06-07T08:10:12.648Z,24.00
2023-06-07T08:12:40.844Z,24.10
2023-06-07T08:15:10.169Z,24.00
2023-06-07T08:17:37.664Z,24.20
2023-06-07T08:20:09.075Z,24.20
2023-06-07T08:22:39.449Z,24.30
2023-06-07T08:25:08.739Z,24.40
2023-06-07T08:27:37.293Z,24.50
2023-06-07T08:30:07.200Z,24.40
2023-06-07T08:32:35.340Z,24.50
2023-06-07T08:35:03.009Z,24.80
2023-06-07T08:37:31.020Z,25.30
2023-06-07T08:39:58.481Z,25.50
2023-06-07T08:42:26.602Z,26.00
2023-06-07T08:44:54.455Z,26.50
2023-06-07T08:47:23.681Z,27.00
2023-06-07T08:49:56.723Z,27.10
2023-06-07T08:52:25.580Z,27.10
2023-06-07T08:54:59.653Z,27.10
2023-06-07T08:57:29.748Z,27.40
2023-06-07T08:59:58.472Z,27.90
2023-06-07T09:02:26.887Z,28.00
2023-06-07T09:04:54.468Z,27.60
2023-06-07T09:07:21.990Z,27.40
2023-06-07T09:09:49.572Z,27.70
2023-06-07T09:12:17.096Z,28.00
2023-06-07T09:14:48.005Z,28.20
2023-06-07T09:17:15.714Z,28.30
2023-06-07T09:19:43.886Z,28.50
2023-06-07T09:22:15.308Z,28.70
2023-06-07T09:24:43.467Z,28.70
2023-06-07T09:27:14.341Z,28.30
2023-06-07T09:29:44.361Z,28.20
2023-06-07T09:32:22.513Z,28.30
2023-06-07T09:34:52.416Z,28.20
2023-06-07T09:37:22.814Z,28.50
2023-06-07T09:39:53.865Z,28.70
2023-06-07T09:42:22.336Z,29.10
2023-06-07T09:44:50.965Z,29.50
2023-06-07T09:47:23.853Z,29.40
2023-06-07T09:49:56.694Z,29.30
2023-06-07T09:52:24.602Z,28.70
2023-06-07T09:54:52.161Z,28.30
2023-06-07T09:57:31.777Z,27.90
2023-06-07T10:00:18.087Z,27.80
2023-06-07T10:02:50.212Z,27.80
2023-06-07T10:05:22.604Z,27.80
2023-06-07T10:07:53.418Z,28.00
2023-06-07T10:10:23.638Z,28.60
2023-06-07T10:12:52.610Z,29.00
2023-06-07T10:15:24.699Z,29.00
2023-06-07T10:18:31.922Z,29.20
2023-06-07T10:21:03.162Z,29.20
2023-06-07T10:23:40.003Z,29.10
2023-06-07T10:26:16.912Z,29.10
2023-06-07T10:29:08.660Z,29.50
2023-06-07T10:31:46.634Z,29.90
2023-06-07T10:34:16.010Z,30.40
2023-06-07T10:37:08.349Z,30.40
2023-06-07T10:39:38.403Z,29.90
2023-06-07T10:42:07.815Z,29.60
2023-06-07T10:44:37.427Z,29.50
2023-06-07T10:47:44.001Z,29.20
2023-06-07T10:50:50.301Z,29.10
2023-06-07T10:53:18.005Z,29.60
2023-06-07T10:55:45.725Z,30.00
2023-06-07T10:58:29.198Z,30.30
2023-06-07T11:00:58.288Z,30.30
2023-06-07T11:03:46.178Z,29.90
2023-06-07T11:06:14.100Z,29.20
2023-06-07T11:08:41.663Z,28.70
2023-06-07T11:11:44.338Z,28.20
2023-06-07T11:14:15.153Z,27.60
2023-06-07T11:16:42.846Z,27.30
2023-06-07T11:19:18.025Z,27.00
2023-06-07T11:22:06.060Z,26.40
2023-06-07T11:27:28.545Z,26.00
2023-06-07T11:29:57.523Z,25.90
2023-06-07T11:32:25.117Z,25.90
2023-06-07T11:35:03.736Z,26.00
2023-06-07T11:37:32.143Z,25.70
2023-06-07T11:40:00.758Z,25.50
2023-06-07T11:42:28.225Z,25.20
2023-06-07T11:44:55.861Z,25.20
2023-06-07T11:47:23.544Z,25.20
2023-06-07T11:49:51.078Z,25.10
2023-06-07T11:52:20.359Z,25.00
2023-06-07T11:54:47.814Z,25.10
2023-06-07T11:57:15.507Z,25.20
2023-06-07T11:59:43.537Z,25.20
2023-06-07T12:02:14.081Z,25.40
2023-06-07T12:04:43.764Z,25.50
2023-06-07T12:07:21.464Z,25.70
2023-06-07T12:09:50.702Z,26.00
2023-06-07T12:12:18.243Z,26.20
2023-06-07T12:14:47.759Z,26.40
2023-06-07T12:17:15.551Z,26.70
2023-06-07T12:19:43.687Z,26.90
2023-06-07T12:22:11.364Z,26.90
2023-06-07T12:24:39.722Z,27.10
2023-06-07T12:27:13.170Z,27.10
2023-06-07T12:29:41.987Z,27.20
2023-06-07T12:32:10.572Z,27.30
2023-06-07T12:34:44.097Z,27.30
2023-06-07T12:37:11.963Z,27.40
2023-06-07T12:39:39.475Z,27.50
2023-06-07T12:42:07.858Z,27.50
2023-06-07T12:44:36.367Z,27.50
2023-06-07T12:47:03.960Z,27.80
2023-06-07T12:49:31.664Z,28.20
2023-06-07T12:51:59.154Z,28.50
2023-06-07T12:54:27.615Z,28.60
2023-06-07T12:56:55.411Z,28.90
2023-06-07T12:59:22.906Z,28.70
2023-06-07T13:01:50.495Z,28.90
2023-06-07T13:04:18.000Z,29.00
2023-06-07T13:06:55.103Z,29.00
2023-06-07T13:09:22.636Z,29.20
2023-06-07T13:11:50.600Z,29.20
2023-06-07T13:14:18.123Z,29.40
2023-06-07T13:16:45.924Z,29.50
2023-06-07T13:19:13.450Z,29.60
2023-06-07T13:21:41.554Z,29.60
2023-06-07T13:24:10.002Z,29.40
2023-06-07T13:26:54.897Z,29.30
2023-06-07T13:29:22.375Z,29.10
2023-06-07T13:31:50.207Z,28.90
2023-06-07T13:34:17.788Z,28.80
2023-06-07T13:36:45.414Z,28.60
2023-06-07T13:39:12.958Z,28.50
2023-06-07T13:41:42.513Z,28.30
2023-06-07T13:44:20.300Z,28.20
2023-06-07T13:46:48.426Z,27.90
2023-06-07T13:49:16.385Z,27.60
2023-06-07T13:51:43.948Z,27.30
2023-06-07T13:54:11.952Z,26.90
2023-06-07T13:56:39.768Z,26.70
2023-06-07T13:59:08.117Z,26.70
2023-06-07T14:01:37.044Z,26.70
2023-06-07T14:04:05.044Z,26.70
2023-06-07T14:06:32.686Z,26.60
2023-06-07T14:09:00.486Z,26.40
2023-06-07T14:11:28.093Z,26.20
2023-06-07T14:13:55.693Z,25.90
2023-06-07T14:16:26.286Z,25.80
2023-06-07T14:18:55.638Z,25.80
2023-06-07T14:21:23.167Z,25.70
2023-06-07T14:23:50.762Z,25.40
2023-06-07T14:26:18.388Z,25.30
2023-06-07T14:28:45.897Z,25.30
2023-06-07T14:31:13.550Z,25.20
2023-06-07T14:33:41.006Z,25.10
2023-06-07T14:36:08.465Z,25.10
2023-06-07T14:38:37.088Z,25.10
2023-06-07T14:41:04.622Z,25.10
2023-06-07T14:43:32.141Z,25.10
2023-06-07T14:45:59.672Z,25.10
2023-06-07T14:48:27.255Z,25.10
2023-06-07T14:50:54.690Z,25.10
2023-06-07T14:53:22.608Z,25.20
2023-06-07T14:55:50.068Z,25.20
2023-06-07T14:58:17.674Z,25.10
2023-06-07T15:00:47.031Z,25.10
2023-06-07T15:03:17.716Z,24.90
2023-06-07T15:05:45.631Z,24.90
2023-06-07T15:08:13.164Z,24.80
2023-06-07T15:10:40.875Z,24.60
2023-06-07T15:13:08.389Z,24.60
2023-06-07T15:15:37.079Z,24.50
2023-06-07T15:18:29.443Z,24.40
2023-06-07T15:20:57.036Z,24.20
2023-06-07T15:23:24.777Z,24.20
2023-06-07T15:25:52.365Z,24.10
2023-06-07T15:28:19.880Z,24.10
2023-06-07T15:30:47.361Z,24.10
2023-06-07T15:33:18.035Z,24.10
2023-06-07T15:35:45.638Z,24.00
2023-06-07T15:38:14.454Z,24.00
2023-06-07T15:40:45.062Z,24.00
2023-06-07T15:43:12.652Z,24.10
2023-06-07T15:45:40.445Z,24.20
2023-06-07T15:48:08.389Z,24.20
2023-06-07T15:50:36.340Z,24.10
2023-06-07T15:53:05.611Z,24.10
2023-06-07T15:55:35.284Z,24.00
2023-06-07T15:58:02.922Z,24.00
2023-06-07T16:00:38.960Z,24.00
2023-06-07T16:03:07.314Z,23.90
2023-06-07T16:05:34.997Z,23.90
2023-06-07T16:08:12.367Z,23.80
2023-06-07T16:11:05.511Z,23.60
2023-06-07T16:13:39.273Z,23.50
2023-06-07T16:16:06.895Z,23.50
2023-06-07T16:18:34.542Z,23.30
2023-06-07T16:21:02.014Z,23.20
2023-06-07T16:23:31.704Z,23.10
2023-06-07T16:25:59.303Z,22.90
2023-06-07T16:28:26.785Z,22.90
2023-06-07T16:30:54.241Z,22.80
2023-06-07T16:33:22.019Z,22.70
2023-06-07T16:35:49.691Z,22.70
2023-06-07T16:38:18.074Z,22.60
2023-06-07T16:40:46.916Z,22.60
2023-06-07T16:43:16.073Z,22.60
2023-06-07T16:45:43.540Z,22.50
2023-06-07T16:48:11.147Z,22.50
2023-06-07T16:50:38.752Z,22.40
2023-06-07T16:53:06.409Z,22.40
2023-06-07T16:55:47.082Z,22.40
2023-06-07T16:58:14.752Z,22.40
2023-06-07T17:00:42.277Z,22.40
2023-06-07T17:03:09.864Z,22.30
2023-06-07T17:05:37.637Z,22.30
2023-06-07T17:08:06.394Z,22.30
2023-06-07T17:10:37.161Z,22.30
2023-06-07T17:13:04.684Z,22.20
2023-06-07T17:15:32.364Z,22.20
2023-06-07T17:18:02.906Z,22.20
2023-06-07T17:20:30.445Z,22.10
2023-06-07T17:22:59.815Z,22.00
2023-06-07T17:25:27.268Z,22.00
2023-06-07T17:28:08.292Z,21.90
2023-06-07T17:30:40.065Z,21.80
2023-06-07T17:33:07.716Z,21.70
2023-06-07T17:35:35.166Z,21.60
2023-06-07T17:38:02.678Z,21.60
2023-06-07T17:40:32.401Z,21.50
2023-06-07T17:43:00.149Z,21.40
2023-06-07T17:45:31.193Z,21.30
2023-06-07T17:47:58.677Z,21.30
2023-06-07T17:50:41.673Z,21.30
2023-06-07T17:53:14.917Z,21.20
2023-06-07T17:55:44.371Z,21.20
2023-06-07T17:58:12.271Z,21.30
2023-06-07T18:00:39.874Z,21.20
2023-06-07T18:03:09.483Z,21.20
2023-06-07T18:05:39.359Z,21.10
2023-06-07T18:08:06.957Z,21.10
2023-06-07T18:10:34.653Z,21.00
2023-06-07T18:13:04.538Z,20.90
2023-06-07T18:15:32.326Z,20.80
2023-06-07T18:18:07.126Z,20.70
2023-06-07T18:20:35.727Z,20.60
2023-06-07T18:23:06.416Z,20.60
2023-06-07T18:25:33.872Z,20.50
2023-06-07T18:28:02.481Z,20.50
2023-06-07T18:30:30.069Z,20.30
2023-06-07T18:32:59.854Z,20.20
2023-06-07T18:35:27.375Z,20.10
2023-06-07T18:37:55.000Z,20.00
2023-06-07T18:40:22.517Z,19.90
2023-06-07T18:42:50.276Z,19.80
2023-06-07T18:45:17.926Z,19.70
2023-06-07T18:47:46.279Z,19.60
2023-06-07T18:50:21.280Z,19.50
2023-06-07T18:52:48.736Z,19.40
2023-06-07T18:55:16.304Z,19.30
2023-06-07T18:57:43.765Z,19.30
2023-06-07T19:00:12.128Z,19.20
2023-06-07T19:02:39.743Z,19.10
2023-06-07T19:05:08.241Z,19.00
2023-06-07T19:07:37.136Z,18.90
2023-06-07T19:10:05.286Z,18.90
2023-06-07T19:12:32.749Z,18.80
2023-06-07T19:15:00.592Z,18.70
2023-06-07T19:17:28.146Z,18.70
2023-06-07T19:19:58.203Z,18.60
2023-06-07T19:22:25.815Z,18.70
2023-06-07T19:24:53.262Z,18.50
2023-06-07T19:27:20.901Z,18.40
2023-06-07T19:29:49.647Z,18.30
2023-06-07T19:32:17.190Z,18.20
2023-06-07T19:34:45.402Z,18.10
2023-06-07T19:37:12.997Z,18.00
2023-06-07T19:39:40.420Z,18.00
2023-06-07T19:42:12.423Z,17.90
2023-06-07T19:44:41.127Z,17.80
2023-06-07T19:47:09.592Z,17.70
2023-06-07T19:49:39.003Z,17.70
2023-06-07T19:52:07.816Z,17.70
2023-06-07T19:54:36.409Z,17.60
2023-06-07T19:57:06.880Z,17.60
2023-06-07T19:59:34.893Z,17.50
2023-06-07T20:02:05.348Z,17.50
2023-06-07T20:04:33.597Z,17.50
2023-06-07T20:07:06.310Z,17.60
2023-06-07T20:09:35.133Z,17.70
2023-06-07T20:12:03.666Z,17.70
2023-06-07T20:14:31.389Z,17.60
2023-06-07T20:16:59.062Z,17.50
2023-06-07T20:19:26.776Z,17.50
2023-06-07T20:21:58.127Z,17.50
2023-06-07T20:24:25.749Z,17.60
2023-06-07T20:26:53.200Z,17.70
2023-06-07T20:29:26.370Z,17.80
2023-06-07T20:31:53.982Z,17.90
2023-06-07T20:34:22.103Z,17.80
2023-06-07T20:36:50.529Z,17.80
2023-06-07T20:39:18.022Z,17.70
2023-06-07T20:41:52.759Z,17.70
2023-06-07T20:44:20.622Z,17.60
2023-06-07T20:46:48.459Z,17.50
2023-06-07T20:49:16.147Z,17.50
2023-06-07T20:51:43.725Z,17.50
2023-06-07T20:54:11.304Z,17.40
2023-06-07T20:56:39.116Z,17.40
2023-06-07T20:59:06.822Z,17.40
2023-06-07T21:01:35.378Z,17.40
2023-06-07T21:04:03.028Z,17.40
2023-06-07T21:06:30.922Z,17.40
2023-06-07T21:08:58.407Z,17.40
2023-06-07T21:11:26.335Z,17.40
2023-06-07T21:13:59.254Z,17.40
2023-06-07T21:16:26.803Z,17.40
2023-06-07T21:18:54.375Z,17.50
2023-06-07T21:21:21.865Z,17.50
2023-06-07T21:23:49.440Z,17.50
2023-06-07T21:26:17.033Z,17.40
2023-06-07T21:28:44.885Z,17.40
2023-06-07T21:31:12.395Z,17.40
2023-06-07T21:33:39.926Z,17.40
2023-06-07T21:36:07.734Z,17.40
2023-06-07T21:38:35.284Z,17.30
2023-06-07T21:41:02.767Z,17.30
2023-06-07T21:43:30.260Z,17.30
2023-06-07T21:45:57.691Z,17.30
2023-06-07T21:48:25.328Z,17.30
2023-06-07T21:50:52.858Z,17.30
2023-06-07T21:53:29.422Z,17.30
2023-06-07T21:55:56.940Z,17.30
2023-06-07T21:58:24.437Z,17.20
2023-06-07T22:00:51.935Z,17.10
2023-06-07T22:03:19.590Z,17.10
2023-06-07T22:05:47.265Z,17.10
2023-06-07T22:08:14.836Z,17.10
2023-06-07T22:10:42.802Z,17.10
2023-06-07T22:13:10.292Z,17.10
2023-06-07T22:15:38.053Z,17.20
2023-06-07T22:18:06.017Z,17.20
2023-06-07T22:20:33.898Z,17.20
2023-06-07T22:23:02.519Z,17.20
2023-06-07T22:25:40.276Z,17.20
2023-06-07T22:28:17.216Z,17.10
2023-06-07T22:30:45.895Z,17.10
2023-06-07T22:33:13.594Z,17.10
2023-06-07T22:35:41.416Z,17.10
2023-06-07T22:38:13.518Z,17.00
2023-06-07T22:40:43.050Z,17.00
2023-06-07T22:43:11.514Z,17.00
2023-06-07T22:45:39.143Z,17.00
2023-06-07T22:48:11.469Z,17.10
2023-06-07T22:50:40.781Z,17.10
2023-06-07T22:53:13.333Z,17.20
2023-06-07T22:55:41.955Z,17.20
2023-06-07T22:58:10.053Z,17.30
2023-06-07T23:00:38.000Z,17.40
2023-06-07T23:03:09.304Z,17.30
2023-06-07T23:05:38.200Z,17.30
2023-06-07T23:08:06.183Z,17.20
2023-06-07T23:10:36.881Z,17.20
2023-06-07T23:13:10.648Z,17.20
2023-06-07T23:15:42.938Z,17.10
2023-06-07T23:18:12.468Z,17.00
2023-06-07T23:20:42.412Z,17.00
2023-06-07T23:23:11.379Z,16.90
2023-06-07T23:25:40.026Z,16.90
2023-06-07T23:28:08.318Z,16.90
2023-06-07T23:30:36.523Z,16.80
2023-06-07T23:33:08.472Z,16.90
2023-06-07T23:35:37.006Z,17.10
2023-06-07T23:38:11.765Z,17.20
2023-06-07T23:40:39.309Z,17.20
2023-06-07T23:43:06.818Z,17.10
2023-06-07T23:45:34.222Z,17.10
2023-06-07T23:48:03.938Z,17.10
2023-06-07T23:50:32.947Z,17.10
2023-06-07T23:53:01.855Z,17.20
2023-06-07T23:55:29.313Z,17.20
2023-06-07T23:57:56.819Z,17.10
